Time;durP1;ratioP1;P1;durP2;ratioP2;P2;SDS_P1;SDS_P2;PMS_P1;PMS_P2;Temp;Humidity;BMP_temperature;BMP_pressure;BME280_temperature;BME280_humidity;BME280_pressure;Samples;Min_cycle;Max_cycle;Signal;HPM_P1;HPM_P2
2023/08/13 00:02:00;;;;;;;0.00;0.00;;;18.20;99.90;;;;;;5055035;28;20779;-72
2023/08/13 00:04:26;;;;;;;16.50;0.55;;;18.30;99.90;;;;;;5055063;28;20017;-72
2023/08/13 00:06:52;;;;;;;19.20;1.00;;;18.30;99.90;;;;;;5037109;28;20029;-72
2023/08/13 00:09:19;;;;;;;0.10;0.10;;;18.20;99.90;;;;;;5054707;28;20021;-72
2023/08/13 00:11:45;;;;;;;0.00;0.00;;;18.40;99.90;;;;;;5054550;28;20029;-72
2023/08/13 00:14:12;;;;;;;0.00;0.00;;;18.30;99.90;;;;;;5054789;28;20079;-72
2023/08/13 00:16:38;;;;;;;0.03;0.03;;;18.10;99.90;;;;;;5054763;28;20025;-72
2023/08/13 00:19:04;;;;;;;5.82;1.80;;;18.00;99.90;;;;;;5054502;28;21454;-72
2023/08/13 00:21:30;;;;;;;1.85;1.10;;;17.90;99.90;;;;;;5054686;28;20389;-72
2023/08/13 00:23:56;;;;;;;0.22;0.20;;;18.00;99.90;;;;;;5054298;28;20029;-72
2023/08/13 00:26:22;;;;;;;0.10;0.10;;;18.10;99.90;;;;;;5054272;28;20143;-72
2023/08/13 00:28:48;;;;;;;3.53;1.35;;;18.10;99.90;;;;;;5054244;28;20440;-72
2023/08/13 00:31:13;;;;;;;0.73;0.30;;;18.10;99.90;;;;;;5036707;28;20036;-72
2023/08/13 00:33:39;;;;;;;0.17;0.17;;;18.10;99.90;;;;;;5037076;28;20460;-72
2023/08/13 00:36:06;;;;;;;2.55;1.05;;;18.00;99.90;;;;;;5054496;28;20075;-72
2023/08/13 00:38:31;;;;;;;0.10;0.10;;;18.00;99.90;;;;;;5036723;28;20032;-72
2023/08/13 00:40:57;;;;;;;0.75;0.40;;;18.00;99.90;;;;;;5054126;28;20033;-72
2023/08/13 00:43:23;;;;;;;0.82;0.80;;;17.90;99.90;;;;;;5036382;28;20036;-72
2023/08/13 00:45:49;;;;;;;0.55;0.43;;;17.90;99.90;;;;;;5036345;28;20053;-72
2023/08/13 00:48:16;;;;;;;0.00;0.00;;;17.90;99.90;;;;;;5036040;28;20488;-72
2023/08/13 00:50:44;;;;;;;0.00;0.00;;;17.70;99.90;;;;;;5054114;28;20017;-72
2023/08/13 00:53:11;;;;;;;1.65;0.22;;;17.70;99.90;;;;;;5036134;28;20029;-72
2023/08/13 00:55:37;;;;;;;0.40;0.30;;;17.80;99.90;;;;;;5019395;28;20163;-72
2023/08/13 00:58:03;;;;;;;1.00;0.30;;;17.90;99.90;;;;;;5036063;28;20111;-72
2023/08/13 01:00:30;;;;;;;0.00;0.00;;;18.10;99.90;;;;;;5036130;28;20036;-73
2023/08/13 01:02:57;;;;;;;0.10;0.10;;;17.90;99.90;;;;;;5045040;28;20020;-72
2023/08/13 01:05:32;;;;;;;0.20;0.20;;;18.00;99.90;;;;;;5036079;28;20500;-72
2023/08/13 01:08:18;;;;;;;0.00;0.00;;;17.90;99.90;;;;;;5053622;28;20098;-72
2023/08/13 01:10:51;;;;;;;0.00;0.00;;;18.00;99.90;;;;;;5053824;28;20025;-73
2023/08/13 01:13:33;;;;;;;0.00;0.00;;;18.10;99.90;;;;;;5035613;28;20389;-72
2023/08/13 01:15:59;;;;;;;0.00;0.00;;;18.00;99.90;;;;;;5049985;28;20025;-72
2023/08/13 01:18:26;;;;;;;0.00;0.00;;;18.10;99.90;;;;;;5052950;28;20036;-72
2023/08/13 01:20:52;;;;;;;0.00;0.00;;;18.10;99.90;;;;;;5034135;28;20420;-73
2023/08/13 01:23:18;;;;;;;0.00;0.00;;;18.00;99.90;;;;;;5034797;28;20029;-73
2023/08/13 01:25:56;;;;;;;0.05;0.05;;;17.80;99.90;;;;;;5053078;28;20462;-72
2023/08/13 01:28:31;;;;;;;0.00;0.00;;;17.80;99.90;;;;;;5053519;28;20037;-72
2023/08/13 01:31:08;;;;;;;0.05;0.05;;;17.90;99.90;;;;;;5053463;28;20033;-72
2023/08/13 01:33:36;;;;;;;0.28;0.28;;;17.90;99.90;;;;;;5053346;28;20095;-72
2023/08/13 01:36:07;;;;;;;0.03;0.03;;;17.60;99.90;;;;;;5053382;28;20016;-72
2023/08/13 01:38:33;;;;;;;0.00;0.00;;;17.60;99.90;;;;;;5015297;28;20120;-72
2023/08/13 01:41:03;;;;;;;6.82;0.50;;;17.60;99.90;;;;;;5035370;28;20017;-72
2023/08/13 01:43:30;;;;;;;3.10;0.30;;;17.60;99.90;;;;;;5053217;28;20021;-73
2023/08/13 01:46:00;;;;;;;0.40;0.40;;;17.30;99.90;;;;;;5052952;28;20037;-72
2023/08/13 01:48:25;;;;;;;4.35;0.40;;;17.40;99.90;;;;;;5035249;28;20424;-72
2023/08/13 01:50:51;;;;;;;0.00;0.00;;;17.30;99.90;;;;;;5052772;28;20039;-72
2023/08/13 01:53:17;;;;;;;0.05;0.05;;;17.40;99.90;;;;;;5052688;28;20082;-72
2023/08/13 01:55:43;;;;;;;0.00;0.00;;;17.60;99.90;;;;;;5052888;28;20025;-72
2023/08/13 01:58:10;;;;;;;0.00;0.00;;;17.60;99.90;;;;;;5035014;28;20021;-72
2023/08/13 02:00:36;;;;;;;0.20;0.20;;;17.60;99.90;;;;;;5032568;28;20474;-72
2023/08/13 02:03:02;;;;;;;0.00;0.00;;;17.70;99.90;;;;;;5035012;28;20029;-72
2023/08/13 02:05:28;;;;;;;5.68;0.85;;;17.70;99.90;;;;;;5052570;28;20386;-73
2023/08/13 02:07:54;;;;;;;0.00;0.00;;;17.70;99.90;;;;;;5034275;28;20047;-72
2023/08/13 02:10:22;;;;;;;0.00;0.00;;;17.80;99.90;;;;;;5034612;28;20474;-72
2023/08/13 02:12:48;;;;;;;0.00;0.00;;;17.50;99.90;;;;;;5035038;28;20035;-73
2023/08/13 02:15:13;;;;;;;0.10;0.10;;;17.30;99.90;;;;;;5034754;28;20505;-72
2023/08/13 02:17:44;;;;;;;0.40;0.40;;;17.40;99.90;;;;;;5052491;28;20029;-72
2023/08/13 02:20:11;;;;;;;0.20;0.20;;;17.50;99.90;;;;;;5018861;28;20040;-72
2023/08/13 02:22:37;;;;;;;0.57;0.57;;;17.60;99.90;;;;;;5052462;28;20031;-72
2023/08/13 02:25:04;;;;;;;1.48;1.05;;;17.50;99.90;;;;;;5052527;28;20037;-72
2023/08/13 02:27:30;;;;;;;5.65;0.20;;;17.20;99.90;;;;;;5034604;28;20060;-72
2023/08/13 02:29:56;;;;;;;0.00;0.00;;;17.40;99.90;;;;;;5034194;28;20059;-72
2023/08/13 02:32:24;;;;;;;0.73;0.40;;;17.70;99.90;;;;;;5034224;28;20029;-73
2023/08/13 02:34:49;;;;;;;0.20;0.20;;;17.70;99.90;;;;;;5052416;28;20021;-72
2023/08/13 02:37:15;;;;;;;0.03;0.03;;;17.60;99.90;;;;;;5051999;28;20060;-72
2023/08/13 02:39:41;;;;;;;0.88;0.68;;;17.80;99.90;;;;;;5052240;28;20028;-72
2023/08/13 02:42:07;;;;;;;2.42;0.75;;;17.60;99.90;;;;;;5052318;28;20035;-72
2023/08/13 02:44:33;;;;;;;0.00;0.00;;;17.50;99.90;;;;;;5052319;28;20051;-72
2023/08/13 02:46:58;;;;;;;0.00;0.00;;;17.70;99.90;;;;;;5034183;28;20543;-73
2023/08/13 02:49:25;;;;;;;0.00;0.00;;;17.70;99.90;;;;;;5052067;28;20025;-73
2023/08/13 02:51:50;;;;;;;1.35;0.90;;;18.00;99.90;;;;;;5051740;28;20130;-72
2023/08/13 02:54:16;;;;;;;0.00;0.00;;;18.00;99.90;;;;;;5034313;28;20041;-72
2023/08/13 02:56:42;;;;;;;2.58;0.45;;;17.90;99.90;;;;;;5034483;28;20024;-73
2023/08/13 02:59:08;;;;;;;0.10;0.10;;;17.90;99.90;;;;;;5052149;28;20036;-73
2023/08/13 03:01:34;;;;;;;0.00;0.00;;;18.20;99.90;;;;;;5034034;28;20485;-72
2023/08/13 03:04:03;;;;;;;0.10;0.10;;;18.10;99.90;;;;;;5030300;28;20032;-72
2023/08/13 03:06:29;;;;;;;1.30;1.00;;;18.10;99.90;;;;;;5051781;28;20465;-73
2023/08/13 03:08:55;;;;;;;1.13;0.90;;;17.70;99.90;;;;;;5034240;28;20044;-73
2023/08/13 03:11:21;;;;;;;0.10;0.10;;;17.60;99.90;;;;;;5034123;28;20107;-73
2023/08/13 03:13:48;;;;;;;1.75;1.65;;;17.50;99.90;;;;;;5034140;28;20385;-72
2023/08/13 03:16:16;;;;;;;0.00;0.00;;;17.80;99.90;;;;;;5033867;28;20057;-72
2023/08/13 03:18:42;;;;;;;4.18;0.22;;;17.80;99.90;;;;;;5051631;28;20013;-73
2023/08/13 03:21:11;;;;;;;0.10;0.10;;;17.80;99.90;;;;;;5033766;28;20035;-72
2023/08/13 03:23:37;;;;;;;0.80;0.80;;;18.00;99.90;;;;;;5033742;28;20396;-72
2023/08/13 03:26:04;;;;;;;0.95;0.60;;;18.20;99.90;;;;;;5033832;28;20025;-72
2023/08/13 03:28:30;;;;;;;3.10;0.57;;;18.10;99.90;;;;;;5033995;28;20037;-72
2023/08/13 03:31:02;;;;;;;0.10;0.10;;;17.80;99.90;;;;;;5034216;28;20351;-72
2023/08/13 03:33:39;;;;;;;0.88;0.50;;;17.60;99.90;;;;;;5033654;28;20542;-73
2023/08/13 03:36:06;;;;;;;0.10;0.10;;;17.70;99.90;;;;;;5033962;28;20021;-73
2023/08/13 03:38:34;;;;;;;2.22;1.85;;;17.80;99.90;;;;;;5034651;28;20124;-72
2023/08/13 03:41:00;;;;;;;0.00;0.00;;;17.70;99.90;;;;;;5052154;28;20108;-73
2023/08/13 03:43:27;;;;;;;0.00;0.00;;;17.70;99.90;;;;;;5035076;28;20024;-73
2023/08/13 03:45:53;;;;;;;2.17;0.85;;;18.10;99.90;;;;;;5036049;28;20083;-72
2023/08/13 03:48:18;;;;;;;0.00;0.00;;;18.10;99.90;;;;;;5037079;28;20128;-72
2023/08/13 03:50:44;;;;;;;0.03;0.03;;;17.80;99.90;;;;;;5037083;28;20021;-72
2023/08/13 03:53:12;;;;;;;0.52;0.52;;;17.80;99.90;;;;;;5037595;28;20485;-72
2023/08/13 03:55:39;;;;;;;0.22;0.22;;;17.80;99.90;;;;;;5037077;28;20056;-72
2023/08/13 03:58:07;;;;;;;2.55;0.45;;;17.80;99.90;;;;;;5037197;28;20025;-73
2023/08/13 04:00:33;;;;;;;0.00;0.00;;;17.80;99.90;;;;;;5037300;28;20469;-73
2023/08/13 04:02:59;;;;;;;0.10;0.10;;;17.70;99.90;;;;;;5031640;28;20359;-73
2023/08/13 04:05:25;;;;;;;0.00;0.00;;;17.60;99.90;;;;;;5029549;28;20040;-72
2023/08/13 04:07:51;;;;;;;0.00;0.00;;;17.60;99.90;;;;;;5036622;28;20033;-72
2023/08/13 04:10:17;;;;;;;0.00;0.00;;;17.60;99.90;;;;;;5036989;28;20028;-72
2023/08/13 04:12:44;;;;;;;0.00;0.00;;;17.70;99.90;;;;;;5037082;28;20477;-73
2023/08/13 04:15:10;;;;;;;0.35;0.35;;;17.60;99.90;;;;;;5036995;28;20021;-73
2023/08/13 04:17:38;;;;;;;0.55;0.28;;;17.60;99.90;;;;;;5020118;28;20021;-73
2023/08/13 04:20:07;;;;;;;0.20;0.20;;;17.70;99.90;;;;;;5036683;28;20107;-72
2023/08/13 04:22:33;;;;;;;0.10;0.10;;;17.70;99.90;;;;;;5036298;28;20040;-73
2023/08/13 04:24:59;;;;;;;0.00;0.00;;;17.50;99.90;;;;;;5019654;28;20037;-72
2023/08/13 04:27:25;;;;;;;1.52;1.25;;;17.60;99.90;;;;;;5035816;28;20033;-73
2023/08/13 04:29:51;;;;;;;0.10;0.10;;;17.50;99.90;;;;;;5035914;28;20017;-73
2023/08/13 04:32:20;;;;;;;0.03;0.03;;;17.50;99.90;;;;;;5036175;28;20032;-73
2023/08/13 04:34:46;;;;;;;2.15;0.30;;;17.50;99.90;;;;;;5036458;28;20029;-73
2023/08/13 04:37:12;;;;;;;0.00;0.00;;;17.50;99.90;;;;;;5036477;28;20428;-73
2023/08/13 04:39:39;;;;;;;0.00;0.00;;;17.70;99.90;;;;;;5036065;28;20021;-73
2023/08/13 04:42:06;;;;;;;0.00;0.00;;;17.60;99.90;;;;;;5036377;28;20041;-73
2023/08/13 04:44:32;;;;;;;0.00;0.00;;;17.60;99.90;;;;;;5016371;28;20029;-72
2023/08/13 04:46:58;;;;;;;0.05;0.05;;;17.70;99.90;;;;;;5032164;28;20079;-72
2023/08/13 04:49:25;;;;;;;0.08;0.08;;;17.70;99.90;;;;;;5032620;28;20017;-72
2023/08/13 04:51:50;;;;;;;0.00;0.00;;;17.70;99.90;;;;;;5001731;28;20121;-72
2023/08/13 04:54:16;;;;;;;0.00;0.00;;;17.70;99.90;;;;;;5034250;28;20036;-72
2023/08/13 04:56:42;;;;;;;0.03;0.03;;;17.80;99.90;;;;;;5051923;28;20021;-72
2023/08/13 04:59:09;;;;;;;0.00;0.00;;;18.00;99.90;;;;;;5035330;28;20029;-72
2023/08/13 05:01:35;;;;;;;0.03;0.03;;;18.10;99.90;;;;;;5031044;28;20021;-72
2023/08/13 05:04:02;;;;;;;0.10;0.10;;;18.00;99.90;;;;;;5026110;28;20051;-72
2023/08/13 05:06:32;;;;;;;0.00;0.00;;;18.00;99.90;;;;;;5015854;28;20091;-72
2023/08/13 05:09:00;;;;;;;0.03;0.03;;;18.00;99.90;;;;;;5016596;28;20025;-72
2023/08/13 05:11:26;;;;;;;11.80;0.55;;;18.00;99.90;;;;;;5016303;28;20075;-73
2023/08/13 05:13:52;;;;;;;0.00;0.00;;;17.80;99.90;;;;;;4998620;28;20029;-72
2023/08/13 05:16:19;;;;;;;0.00;0.00;;;17.80;99.90;;;;;;5032447;28;20026;-72
2023/08/13 05:18:46;;;;;;;0.20;0.20;;;17.70;99.90;;;;;;5018985;28;20064;-72
2023/08/13 05:21:14;;;;;;;0.00;0.00;;;17.90;99.90;;;;;;5018108;28;20026;-73
2023/08/13 05:23:40;;;;;;;0.90;0.90;;;18.10;99.90;;;;;;5034811;28;20029;-72
2023/08/13 05:26:06;;;;;;;0.10;0.10;;;18.10;99.90;;;;;;5015852;28;20108;-72
2023/08/13 05:28:33;;;;;;;0.00;0.00;;;18.20;99.90;;;;;;5025651;28;20037;-72
2023/08/13 05:31:03;;;;;;;0.00;0.00;;;18.20;99.90;;;;;;5034917;28;20496;-72
2023/08/13 05:33:29;;;;;;;0.00;0.00;;;18.30;99.90;;;;;;5052074;28;20037;-72
2023/08/13 05:35:55;;;;;;;2.90;1.40;;;18.30;99.90;;;;;;5032209;28;20017;-72
2023/08/13 05:38:21;;;;;;;3.03;2.90;;;18.20;99.90;;;;;;5052015;28;20025;-72
2023/08/13 05:40:47;;;;;;;0.10;0.10;;;18.20;99.90;;;;;;5051659;28;20021;-72
2023/08/13 05:43:13;;;;;;;0.15;0.15;;;18.10;99.90;;;;;;5030278;28;20120;-72
2023/08/13 05:45:41;;;;;;;0.00;0.00;;;18.10;99.90;;;;;;5016080;28;20029;-72
2023/08/13 05:48:07;;;;;;;0.00;0.00;;;18.20;99.90;;;;;;5033655;28;20037;-73
2023/08/13 05:50:33;;;;;;;0.20;0.20;;;18.10;99.90;;;;;;5034677;28;20036;-73
2023/08/13 05:52:59;;;;;;;0.75;0.75;;;18.10;99.90;;;;;;5027860;28;20025;-72
2023/08/13 05:55:25;;;;;;;0.20;0.20;;;18.10;99.90;;;;;;5047677;28;20037;-72
2023/08/13 05:57:51;;;;;;;0.20;0.20;;;18.20;99.90;;;;;;5048209;28;20058;-72
2023/08/13 06:00:17;;;;;;;0.00;0.00;;;18.20;99.90;;;;;;5038517;28;20136;-72
2023/08/13 06:02:43;;;;;;;5.13;0.43;;;18.10;99.90;;;;;;5050857;28;20021;-72
2023/08/13 06:05:09;;;;;;;0.17;0.10;;;18.10;99.90;;;;;;5047968;28;20031;-72
2023/08/13 06:07:35;;;;;;;4.03;1.42;;;18.20;99.90;;;;;;5048386;28;20154;-72
2023/08/13 06:10:04;;;;;;;0.00;0.00;;;18.10;99.90;;;;;;5052238;28;20028;-73
2023/08/13 06:12:31;;;;;;;0.00;0.00;;;18.20;99.90;;;;;;5052696;28;20377;-72
2023/08/13 06:14:58;;;;;;;0.90;0.70;;;18.40;99.90;;;;;;5047604;28;20029;-73
2023/08/13 06:17:24;;;;;;;0.00;0.00;;;18.40;99.90;;;;;;5023279;28;20477;-73
2023/08/13 06:19:50;;;;;;;0.00;0.00;;;18.50;99.90;;;;;;5050935;28;20024;-72
2023/08/13 06:22:15;;;;;;;0.10;0.10;;;18.50;99.90;;;;;;5041533;28;20033;-73
2023/08/13 06:24:41;;;;;;;4.15;0.52;;;18.40;99.90;;;;;;5037049;28;20033;-73
2023/08/13 06:27:07;;;;;;;0.00;0.00;;;18.50;99.90;;;;;;5047622;28;20408;-73
2023/08/13 06:29:33;;;;;;;0.10;0.10;;;18.50;99.90;;;;;;5051159;28;20029;-73
2023/08/13 06:31:59;;;;;;;0.82;0.52;;;18.60;99.90;;;;;;5050072;28;20048;-73
2023/08/13 06:34:25;;;;;;;0.00;0.00;;;18.80;99.90;;;;;;5043068;28;20094;-73
2023/08/13 06:36:51;;;;;;;0.00;0.00;;;18.80;99.90;;;;;;5041496;28;20040;-74
2023/08/13 06:39:18;;;;;;;0.45;0.45;;;19.00;99.90;;;;;;5046203;28;20037;-73
2023/08/13 06:41:44;;;;;;;0.80;0.45;;;18.90;99.90;;;;;;5049179;28;20040;-73
2023/08/13 06:44:18;;;;;;;0.00;0.00;;;18.80;99.90;;;;;;5032891;28;20534;-73
2023/08/13 06:46:48;;;;;;;0.20;0.20;;;18.90;99.90;;;;;;5045732;28;20033;-73
2023/08/13 06:49:14;;;;;;;0.00;0.00;;;19.10;99.90;;;;;;5052392;28;20032;-73
2023/08/13 06:51:40;;;;;;;0.00;0.00;;;19.10;99.90;;;;;;5049468;28;20025;-73
2023/08/13 06:54:06;;;;;;;0.28;0.28;;;19.00;99.90;;;;;;5049883;28;20170;-72
2023/08/13 06:56:33;;;;;;;2.38;1.02;;;18.80;99.90;;;;;;5051261;28;20028;-73
2023/08/13 06:58:59;;;;;;;2.65;0.70;;;18.80;99.90;;;;;;5047468;28;20041;-72
2023/08/13 07:01:25;;;;;;;0.90;0.70;;;18.70;99.90;;;;;;5032611;28;20075;-72
2023/08/13 07:03:50;;;;;;;0.00;0.00;;;18.70;99.90;;;;;;5050693;28;20067;-72
2023/08/13 07:06:16;;;;;;;0.05;0.05;;;18.80;99.90;;;;;;5050783;28;20032;-73
2023/08/13 07:08:42;;;;;;;2.40;0.65;;;18.90;99.90;;;;;;5050939;28;20060;-72
2023/08/13 07:11:08;;;;;;;3.33;0.68;;;18.90;99.90;;;;;;5050962;28;20037;-72
2023/08/13 07:13:34;;;;;;;0.00;0.00;;;19.00;99.90;;;;;;5051202;28;20090;-73
2023/08/13 07:16:00;;;;;;;4.05;0.73;;;18.90;99.90;;;;;;5050819;28;20033;-73
2023/08/13 07:18:26;;;;;;;0.35;0.35;;;19.00;99.90;;;;;;5034579;28;20024;-72
2023/08/13 07:20:52;;;;;;;0.00;0.00;;;19.10;99.90;;;;;;5054461;28;20175;-73
2023/08/13 07:23:18;;;;;;;0.68;0.38;;;19.20;99.90;;;;;;5054055;28;20075;-72
2023/08/13 07:25:44;;;;;;;0.10;0.10;;;19.30;99.90;;;;;;5054362;28;20040;-72
2023/08/13 07:28:09;;;;;;;0.15;0.15;;;19.10;99.90;;;;;;5054683;28;20033;-72
2023/08/13 07:30:35;;;;;;;0.75;0.75;;;19.10;99.90;;;;;;5054351;28;20060;-73
2023/08/13 07:33:01;;;;;;;0.00;0.00;;;19.10;99.90;;;;;;5054429;28;20025;-72
2023/08/13 07:35:27;;;;;;;1.10;0.55;;;19.30;99.90;;;;;;5029220;28;20021;-72
2023/08/13 07:37:53;;;;;;;4.32;2.20;;;19.50;99.90;;;;;;5047706;28;20025;-72
2023/08/13 07:40:19;;;;;;;0.17;0.17;;;19.40;99.90;;;;;;5053957;28;20135;-72
2023/08/13 07:42:44;;;;;;;0.55;0.55;;;19.20;99.90;;;;;;5052467;28;20025;-72
2023/08/13 07:45:11;;;;;;;1.65;1.55;;;19.40;99.90;;;;;;5040932;28;20120;-72
2023/08/13 07:47:37;;;;;;;8.27;2.70;;;19.40;99.90;;;;;;5054034;28;20482;-73
2023/08/13 07:50:05;;;;;;;0.32;0.30;;;19.50;99.90;;;;;;5054092;28;20069;-73
2023/08/13 07:52:31;;;;;;;0.17;0.17;;;19.60;99.90;;;;;;5054413;28;20017;-72
2023/08/13 07:54:57;;;;;;;2.60;0.60;;;19.40;99.90;;;;;;5053464;28;20385;-72
2023/08/13 07:57:23;;;;;;;6.57;1.08;;;19.40;99.90;;;;;;5054151;28;20115;-73
2023/08/13 07:59:49;;;;;;;0.43;0.30;;;19.50;99.90;;;;;;5053984;28;20020;-73
2023/08/13 08:02:15;;;;;;;0.73;0.55;;;19.60;99.90;;;;;;5053921;28;20033;-73
2023/08/13 08:04:42;;;;;;;0.32;0.20;;;19.70;99.90;;;;;;5053927;28;20127;-72
2023/08/13 08:07:08;;;;;;;3.25;0.73;;;19.70;99.90;;;;;;5035952;28;20036;-73
2023/08/13 08:09:33;;;;;;;1.45;0.30;;;19.90;99.90;;;;;;5053356;28;20021;-73
2023/08/13 08:11:59;;;;;;;0.00;0.00;;;20.10;99.90;;;;;;5053965;28;20496;-73
2023/08/13 08:14:25;;;;;;;0.00;0.00;;;20.10;99.90;;;;;;5046780;28;20350;-74
2023/08/13 08:16:57;;;;;;;0.20;0.20;;;20.10;99.90;;;;;;5044206;28;20029;-72
2023/08/13 08:19:23;;;;;;;1.10;0.77;;;20.20;99.90;;;;;;5045563;28;20075;-73
2023/08/13 08:21:48;;;;;;;1.15;1.05;;;20.20;99.90;;;;;;5050035;28;20033;-74
2023/08/13 08:24:14;;;;;;;0.45;0.40;;;20.30;99.90;;;;;;5035083;28;20370;-73
2023/08/13 08:26:40;;;;;;;0.10;0.10;;;20.00;99.90;;;;;;5046603;28;20055;-73
2023/08/13 08:29:06;;;;;;;0.00;0.00;;;20.00;99.90;;;;;;5052892;28;20376;-73
2023/08/13 08:31:31;;;;;;;0.77;0.77;;;20.00;99.90;;;;;;5043510;28;20029;-72
2023/08/13 08:33:57;;;;;;;0.88;0.38;;;19.90;99.90;;;;;;5040037;28;20032;-72
2023/08/13 08:36:24;;;;;;;1.85;1.52;;;20.00;99.90;;;;;;5031897;28;20658;-73
2023/08/13 08:38:50;;;;;;;0.08;0.08;;;20.00;99.90;;;;;;5043232;28;20020;-73
2023/08/13 08:41:18;;;;;;;0.75;0.75;;;20.30;99.90;;;;;;5047994;28;20033;-73
2023/08/13 08:43:44;;;;;;;2.33;0.55;;;20.60;99.90;;;;;;5032158;28;20424;-73
2023/08/13 08:46:12;;;;;;;1.38;0.88;;;20.60;99.90;;;;;;5050173;28;20509;-74
2023/08/13 08:48:40;;;;;;;1.45;0.60;;;20.80;99.90;;;;;;5043256;28;20029;-73
2023/08/13 08:51:07;;;;;;;1.85;0.65;;;20.70;99.90;;;;;;5041877;28;20033;-75
2023/08/13 08:53:34;;;;;;;2.67;1.38;;;20.80;99.90;;;;;;5034633;28;20029;-75
2023/08/13 08:56:00;;;;;;;0.10;0.10;;;20.50;99.90;;;;;;5021449;28;20033;-74
2023/08/13 08:58:27;;;;;;;2.00;0.57;;;20.70;99.90;;;;;;5046100;28;20021;-73
2023/08/13 09:00:59;;;;;;;1.08;0.75;;;20.40;99.90;;;;;;5050175;28;20021;-73
2023/08/13 09:03:27;;;;;;;0.00;0.00;;;20.80;99.90;;;;;;5044073;28;20041;-73
2023/08/13 09:05:53;;;;;;;0.00;0.00;;;20.70;99.90;;;;;;5048619;28;20044;-73
2023/08/13 09:08:19;;;;;;;0.52;0.30;;;20.80;99.90;;;;;;5051785;28;20107;-72
2023/08/13 09:10:45;;;;;;;6.40;1.05;;;20.90;99.90;;;;;;5034508;28;20451;-72
2023/08/13 09:13:11;;;;;;;0.28;0.28;;;20.80;99.90;;;;;;5052605;28;20025;-73
2023/08/13 09:15:50;;;;;;;0.65;0.65;;;21.10;99.90;;;;;;5041250;28;20074;-73
2023/08/13 09:18:16;;;;;;;0.00;0.00;;;21.30;99.90;;;;;;5046135;28;20040;-74
2023/08/13 09:20:46;;;;;;;0.82;0.47;;;21.20;99.90;;;;;;5051481;28;20017;-73
2023/08/13 09:23:25;;;;;;;0.05;0.03;;;21.40;99.90;;;;;;5051573;28;20045;-74
2023/08/13 09:25:55;;;;;;;0.20;0.20;;;21.30;99.90;;;;;;5028661;28;20108;-73
2023/08/13 09:28:21;;;;;;;0.00;0.00;;;21.60;99.90;;;;;;5043891;28;20133;-73
2023/08/13 09:30:47;;;;;;;2.97;0.75;;;21.60;99.90;;;;;;5035519;28;20092;-73
2023/08/13 09:33:17;;;;;;;4.55;0.75;;;21.80;99.90;;;;;;5050832;28;20041;-73
2023/08/13 09:35:44;;;;;;;0.43;0.43;;;22.00;99.90;;;;;;5051817;28;20556;-73
2023/08/13 09:38:11;;;;;;;0.00;0.00;;;22.10;99.90;;;;;;5027804;28;20405;-73
2023/08/13 09:40:37;;;;;;;0.70;0.70;;;22.00;99.90;;;;;;5049177;28;20033;-72
2023/08/13 09:43:09;;;;;;;2.05;1.58;;;22.10;99.90;;;;;;5050285;28;20477;-72
2023/08/13 09:45:35;;;;;;;4.50;0.35;;;22.30;99.90;;;;;;5041489;28;20033;-73
2023/08/13 09:48:05;;;;;;;0.45;0.45;;;22.60;99.90;;;;;;5032175;28;20519;-73
2023/08/13 09:50:39;;;;;;;7.18;1.40;;;22.50;99.90;;;;;;5050246;28;20029;-73
2023/08/13 09:53:08;;;;;;;8.95;1.42;;;22.50;99.90;;;;;;5048995;28;20041;-73
2023/08/13 09:55:40;;;;;;;1.90;0.55;;;22.80;99.90;;;;;;5042913;28;20104;-73
2023/08/13 09:58:10;;;;;;;0.00;0.00;;;22.70;99.90;;;;;;5045401;28;20485;-73
2023/08/13 10:00:36;;;;;;;0.65;0.20;;;22.60;99.90;;;;;;5040630;28;20071;-73
2023/08/13 10:03:02;;;;;;;1.85;1.75;;;22.60;99.90;;;;;;5046322;28;20053;-72
2023/08/13 10:05:32;;;;;;;3.08;1.63;;;22.90;99.90;;;;;;5047709;28;20028;-73
2023/08/13 10:07:59;;;;;;;13.93;2.80;;;23.00;99.90;;;;;;5044521;28;20052;-73
2023/08/13 10:10:26;;;;;;;7.22;2.22;;;22.70;99.90;;;;;;5055357;28;20146;-73
2023/08/13 10:12:52;;;;;;;9.45;1.48;;;22.30;99.90;;;;;;5042865;28;20037;-73
2023/08/13 10:15:20;;;;;;;10.55;1.55;;;22.40;99.90;;;;;;5048066;28;20025;-73
2023/08/13 10:17:46;;;;;;;0.70;0.70;;;22.40;99.90;;;;;;5044492;28;20040;-73
2023/08/13 10:20:12;;;;;;;1.55;0.60;;;22.60;99.90;;;;;;5032781;28;20123;-74
2023/08/13 10:22:39;;;;;;;3.38;1.48;;;22.90;99.90;;;;;;5045563;28;20031;-74
2023/08/13 10:25:07;;;;;;;0.70;0.30;;;23.20;99.90;;;;;;5046783;28;20028;-73
2023/08/13 10:27:43;;;;;;;0.70;0.50;;;22.90;99.90;;;;;;5050583;28;20080;-74
2023/08/13 10:30:11;;;;;;;0.75;0.75;;;22.80;99.90;;;;;;5049887;28;20126;-80
2023/08/13 10:32:39;;;;;;;0.38;0.38;;;23.10;99.90;;;;;;5050415;28;20115;-71
2023/08/13 10:35:34;;;;;;;3.72;0.35;;;23.50;99.90;;;;;;5050399;28;20029;-71
2023/08/13 10:38:02;;;;;;;11.18;1.30;;;23.90;99.90;;;;;;5044641;28;20112;-71
2023/08/13 10:40:28;;;;;;;2.80;0.47;;;23.60;99.90;;;;;;5050144;28;20028;-71
2023/08/13 10:42:58;;;;;;;1.38;0.85;;;23.60;99.90;;;;;;5050439;28;20078;-71
2023/08/13 10:45:35;;;;;;;0.20;0.20;;;23.10;99.90;;;;;;5048912;28;20029;-71
2023/08/13 10:48:08;;;;;;;1.38;0.52;;;22.90;99.90;;;;;;5029507;28;20476;-71
2023/08/13 10:50:40;;;;;;;2.13;1.20;;;23.20;99.90;;;;;;5048307;28;20544;-71
2023/08/13 10:53:27;;;;;;;6.03;1.20;;;23.10;99.90;;;;;;5049674;28;20440;-71
2023/08/13 10:56:00;;;;;;;1.20;0.40;;;22.80;99.90;;;;;;5051131;28;20036;-71
2023/08/13 10:58:31;;;;;;;0.08;0.08;;;23.40;99.90;;;;;;5048867;28;20100;-71
2023/08/13 11:00:59;;;;;;;0.00;0.00;;;24.00;99.90;;;;;;5055253;28;20060;-71
2023/08/13 11:03:30;;;;;;;2.50;1.67;;;24.20;99.90;;;;;;5055383;28;20032;-72
2023/08/13 11:05:57;;;;;;;1.48;1.10;;;24.40;99.90;;;;;;5050480;28;20022;-71
2023/08/13 11:08:24;;;;;;;7.95;1.63;;;24.10;99.90;;;;;;5049841;28;20370;-71
2023/08/13 11:10:51;;;;;;;0.80;0.68;;;23.70;99.90;;;;;;5054633;28;20029;-71
2023/08/13 11:13:18;;;;;;;0.30;0.10;;;23.50;99.90;;;;;;5054679;28;20065;-71
2023/08/13 11:15:54;;;;;;;3.80;3.50;;;23.40;99.90;;;;;;5053888;28;20043;-71
2023/08/13 11:18:21;;;;;;;0.90;0.28;;;23.60;99.90;;;;;;5050052;28;20052;-71
2023/08/13 11:20:48;;;;;;;0.98;0.82;;;24.10;99.90;;;;;;5054518;28;20060;-71
2023/08/13 11:23:16;;;;;;;0.08;0.08;;;24.00;99.90;;;;;;5036105;28;20044;-71
2023/08/13 11:25:43;;;;;;;0.00;0.00;;;23.70;99.90;;;;;;5054563;28;20116;-71
2023/08/13 11:28:09;;;;;;;10.68;1.70;;;23.90;99.90;;;;;;5053619;28;20106;-71
2023/08/13 11:30:42;;;;;;;0.45;0.45;;;24.40;99.90;;;;;;5053873;28;20020;-73
2023/08/13 11:33:08;;;;;;;1.45;0.80;;;24.40;99.90;;;;;;5035366;28;20048;-71
2023/08/13 11:35:34;;;;;;;5.43;1.35;;;24.40;99.90;;;;;;5051791;28;20096;-71
2023/08/13 11:38:02;;;;;;;6.65;2.47;;;24.30;99.90;;;;;;5050992;28;20112;-72
2023/08/13 11:40:28;;;;;;;0.75;0.50;;;24.50;99.90;;;;;;5054003;28;20021;-71
2023/08/13 11:42:59;;;;;;;5.25;1.25;;;24.90;99.90;;;;;;5054281;28;20482;-72
2023/08/13 11:45:26;;;;;;;0.63;0.43;;;24.80;99.90;;;;;;5053808;28;20033;-71
2023/08/13 11:47:52;;;;;;;2.50;0.63;;;24.60;99.90;;;;;;5053390;28;20401;-71
2023/08/13 11:50:20;;;;;;;4.13;1.58;;;23.90;99.90;;;;;;5053867;28;20029;-71
2023/08/13 11:53:05;;;;;;;0.10;0.10;;;24.20;99.90;;;;;;5053146;28;20112;-71
2023/08/13 11:55:31;;;;;;;0.73;0.50;;;24.80;99.90;;;;;;5054106;28;20092;-71
2023/08/13 11:57:57;;;;;;;3.03;1.30;;;24.70;99.90;;;;;;5053508;28;20108;-71
2023/08/13 12:00:26;;;;;;;1.55;0.63;;;24.90;99.90;;;;;;5054033;28;20029;-74
2023/08/13 12:02:56;;;;;;;0.65;0.50;;;25.40;99.90;;;;;;5052617;28;20063;-71
2023/08/13 12:05:28;;;;;;;5.72;1.35;;;25.10;99.90;;;;;;5034575;28;20028;-71
2023/08/13 12:07:58;;;;;;;0.13;0.13;;;24.70;99.90;;;;;;5047941;28;20151;-71
2023/08/13 12:10:25;;;;;;;0.00;0.00;;;24.30;99.90;;;;;;5053230;28;20508;-71
2023/08/13 12:12:51;;;;;;;0.98;0.28;;;24.60;99.90;;;;;;5050074;28;20018;-71
2023/08/13 12:15:20;;;;;;;2.42;1.05;;;24.50;99.90;;;;;;5040121;28;20029;-71
2023/08/13 12:17:46;;;;;;;0.00;0.00;;;24.20;99.90;;;;;;5034990;28;20063;-71
2023/08/13 12:20:12;;;;;;;2.40;0.68;;;24.80;99.90;;;;;;5037557;28;20586;-72
2023/08/13 12:22:39;;;;;;;0.63;0.63;;;25.10;99.90;;;;;;5053002;28;20508;-72
2023/08/13 12:25:05;;;;;;;0.50;0.50;;;24.60;99.90;;;;;;5054404;28;20029;-72
2023/08/13 12:27:32;;;;;;;6.13;1.00;;;24.50;99.90;;;;;;5054739;28;20051;-71
2023/08/13 12:29:57;;;;;;;0.63;0.63;;;24.40;99.90;;;;;;5019835;28;20095;-71
2023/08/13 12:32:23;;;;;;;0.77;0.25;;;24.40;99.90;;;;;;5036299;28;20429;-71
2023/08/13 12:34:49;;;;;;;0.00;0.00;;;23.60;99.90;;;;;;5045148;28;20013;-71
2023/08/13 12:37:15;;;;;;;0.63;0.20;;;23.90;99.90;;;;;;5041929;28;20355;-71
2023/08/13 12:39:41;;;;;;;4.95;0.95;;;23.50;99.90;;;;;;5038758;28;20056;-71
2023/08/13 12:42:06;;;;;;;2.40;0.90;;;22.80;99.90;;;;;;5050314;28;20025;-71
2023/08/13 12:44:32;;;;;;;0.65;0.65;;;22.60;99.90;;;;;;5053346;28;20474;-71
2023/08/13 12:46:58;;;;;;;0.93;0.40;;;22.40;99.90;;;;;;5048470;28;20029;-71